This is the latest recevied weather packets stored in our database for station/object E22FEY-1. If no packets are shown the sender has not sent any weather packets the latest 10 day(s).
| Time | Temp. | Humidity | Pressure | Rain* | Wind** | Luminosity | Snow |
|---|---|---|---|---|---|---|---|
| 1777337112 | 36.67° C | 50% | 1009 hPa | - | - | 0 W/m² | - |
| 1777336188 | 35.56° C | 54% | 1009 hPa | - | - | 0 W/m² | - |
| 1777335263 | 35.56° C | 53% | 1009 hPa | - | - | 0 W/m² | - |
| 1777334339 | 34.44° C | 56% | 1008 hPa | - | - | 0 W/m² | - |
| 1777333415 | 32.22° C | 61% | 1008 hPa | - | - | 0 W/m² | - |
| 1777332491 | 31.67° C | 63% | 1008 hPa | - | - | 0 W/m² | - |
| 1777331566 | 31.67° C | 64% | 1008 hPa | - | - | 0 W/m² | - |
| 1777330642 | 31.11° C | 65% | 1008 hPa | - | - | 0 W/m² | - |
| 1777329718 | 31.67° C | 65% | 1008 hPa | - | - | 0 W/m² | - |
| 1777328794 | 31.67° C | 65% | 1007 hPa | - | - | 0 W/m² | - |
| 1777327870 | 31.67° C | 65% | 1007 hPa | - | - | 0 W/m² | - |
| 1777326945 | 31.11° C | 66% | 1007 hPa | - | - | 0 W/m² | - |
| 1777326021 | 31.11° C | 66% | 1007 hPa | - | - | 0 W/m² | - |
| 1777325096 | 31.67° C | 65% | 1007 hPa | - | - | 0 W/m² | - |
| 1777324172 | 31.11° C | 65% | 1007 hPa | - | - | 0 W/m² | - |
| 1777323248 | 31.67° C | 64% | 1007 hPa | - | - | 0 W/m² | - |
| 1777322324 | 31.67° C | 65% | 1006 hPa | - | - | 0 W/m² | - |
| 1777321400 | 31.11° C | 65% | 1007 hPa | - | - | 0 W/m² | - |
| 1777320475 | 31.67° C | 65% | 1007 hPa | - | - | 0 W/m² | - |
| 1777319551 | 31.67° C | 64% | 1007 hPa | - | - | 0 W/m² | - |
| 1777318627 | 31.67° C | 64% | 1007 hPa | - | - | 0 W/m² | - |
| 1777317703 | 31.67° C | 65% | 1007 hPa | - | - | 0 W/m² | - |
| 1777316778 | 31.67° C | 65% | 1007 hPa | - | - | 0 W/m² | - |
| 1777315854 | 31.67° C | 65% | 1006 hPa | - | - | 0 W/m² | - |
| 1777314930 | 31.67° C | 65% | 1006 hPa | - | - | 0 W/m² | - |
* Rain since midnight (hover to see other rain measurements)
** Current wind speed in m/s (hover to see current wind gust speed)